createdAt,value
2019-05-28T00:01:40.387Z,13.67
2019-05-28T00:04:23.673Z,13.61
2019-05-28T00:07:06.721Z,13.60
2019-05-28T00:09:57.099Z,13.59
2019-05-28T00:12:47.463Z,13.57
2019-05-28T00:15:30.873Z,13.55
2019-05-28T00:18:21.240Z,13.53
2019-05-28T00:21:04.556Z,13.51
2019-05-28T00:23:54.992Z,13.52
2019-05-28T00:26:37.776Z,13.50
2019-05-28T00:29:28.151Z,13.52
2019-05-28T00:32:11.527Z,13.54
2019-05-28T00:35:01.906Z,13.57
2019-05-28T00:37:44.658Z,13.59
2019-05-28T00:40:35.003Z,13.63
2019-05-28T00:43:18.216Z,13.63
2019-05-28T00:46:08.700Z,13.65
2019-05-28T00:48:52.109Z,13.67
2019-05-28T00:52:02.932Z,13.67
2019-05-28T00:54:45.959Z,13.69
2019-05-28T00:57:36.453Z,13.70
2019-05-28T01:00:36.672Z,13.70
2019-05-28T01:03:34.220Z,13.71
2019-05-28T01:06:17.766Z,13.69
2019-05-28T01:09:00.649Z,13.71
2019-05-28T01:11:50.998Z,13.69
2019-05-28T01:14:41.414Z,13.69
2019-05-28T01:17:24.920Z,13.68
2019-05-28T01:23:44.046Z,13.69
2019-05-28T01:26:34.441Z,13.67
2019-05-28T01:29:37.478Z,13.67
2019-05-28T01:32:27.813Z,13.65
2019-05-28T01:35:11.236Z,13.65
2019-05-28T01:41:28.789Z,13.65
2019-05-28T01:44:19.214Z,13.65
2019-05-28T01:47:09.562Z,13.66
2019-05-28T01:49:52.537Z,13.67
2019-05-28T01:52:42.886Z,13.66
2019-05-28T01:55:45.518Z,13.66
2019-05-28T01:58:35.867Z,13.65
2019-05-28T02:01:19.193Z,13.66
2019-05-28T02:04:09.573Z,13.66
2019-05-28T02:06:52.661Z,13.61
2019-05-28T02:09:35.853Z,13.57
2019-05-28T02:12:26.217Z,13.54
2019-05-28T02:15:09.726Z,13.54
2019-05-28T02:18:00.071Z,13.53
2019-05-28T02:20:43.360Z,13.52
2019-05-28T02:23:33.798Z,13.53
2019-05-28T02:26:16.729Z,13.53
2019-05-28T02:29:07.138Z,13.52
2019-05-28T02:31:49.701Z,13.54
2019-05-28T02:34:40.103Z,13.54
2019-05-28T02:37:23.094Z,13.58
2019-05-28T02:43:42.861Z,13.56
2019-05-28T02:46:33.323Z,13.55
2019-05-28T02:49:16.532Z,13.58
2019-05-28T02:52:06.909Z,13.55
2019-05-28T02:54:49.766Z,13.54
2019-05-28T02:58:00.611Z,13.52
2019-05-28T03:00:44.988Z,13.50
2019-05-28T03:03:35.385Z,13.48
2019-05-28T03:06:19.884Z,13.48
2019-05-28T03:09:04.197Z,13.51
2019-05-28T03:11:55.212Z,13.42
2019-05-28T03:14:38.249Z,13.29
2019-05-28T03:17:49.080Z,13.21
2019-05-28T03:20:33.050Z,13.16
2019-05-28T03:23:43.909Z,13.16
2019-05-28T03:26:26.454Z,13.15
2019-05-28T03:29:16.849Z,13.16
2019-05-28T03:32:07.949Z,13.19
2019-05-28T03:34:52.283Z,13.21
2019-05-28T03:37:36.011Z,13.20
2019-05-28T03:44:22.714Z,13.20
2019-05-28T03:47:13.054Z,13.30
2019-05-28T03:50:16.476Z,13.30
2019-05-28T03:53:06.847Z,13.17
2019-05-28T03:55:49.664Z,13.11
2019-05-28T03:58:40.059Z,13.09
2019-05-28T04:01:23.312Z,13.11
2019-05-28T04:04:13.679Z,13.16
2019-05-28T04:06:56.373Z,13.18
2019-05-28T04:09:39.069Z,13.21
2019-05-28T04:12:29.455Z,13.22
2019-05-28T04:15:13.008Z,13.25
2019-05-28T04:18:03.372Z,13.26
2019-05-28T04:21:06.190Z,13.26
2019-05-28T04:23:56.607Z,13.30
2019-05-28T04:26:39.870Z,13.33
2019-05-28T04:29:30.253Z,13.35
2019-05-28T04:32:13.524Z,13.39
2019-05-28T04:35:03.909Z,13.44
2019-05-28T04:37:48.147Z,13.44
2019-05-28T04:40:38.559Z,13.42
2019-05-28T04:43:21.459Z,13.41
2019-05-28T04:46:11.831Z,13.44
2019-05-28T04:48:54.443Z,13.46
2019-05-28T04:51:45.152Z,13.48
2019-05-28T04:54:35.608Z,13.53
2019-05-28T04:57:18.254Z,13.62
2019-05-28T05:00:08.842Z,13.76
2019-05-28T05:02:59.450Z,13.85
2019-05-28T05:05:43.768Z,13.90
2019-05-28T05:08:27.199Z,13.96
2019-05-28T05:11:10.283Z,14.01
2019-05-28T05:14:00.657Z,14.12
2019-05-28T05:16:51.063Z,14.18
2019-05-28T05:19:41.438Z,14.29
2019-05-28T05:22:24.133Z,14.34
2019-05-28T05:25:15.016Z,14.41
2019-05-28T05:27:57.624Z,14.52
2019-05-28T05:30:48.000Z,14.58
2019-05-28T05:33:30.882Z,14.66
2019-05-28T05:36:21.261Z,14.76
2019-05-28T05:39:05.966Z,14.81
2019-05-28T05:41:56.363Z,14.86
2019-05-28T05:44:39.875Z,14.97
2019-05-28T05:47:30.282Z,14.98
2019-05-28T05:50:13.097Z,14.92
2019-05-28T05:53:03.652Z,14.94
2019-05-28T05:55:46.469Z,14.88
2019-05-28T05:58:38.798Z,14.93
2019-05-28T06:01:21.611Z,15.10
2019-05-28T06:04:12.055Z,15.00
2019-05-28T06:06:55.172Z,14.98
2019-05-28T06:09:45.567Z,15.05
2019-05-28T06:12:28.369Z,15.12
2019-05-28T06:15:18.753Z,15.10
2019-05-28T06:18:02.092Z,15.14
2019-05-28T06:21:07.710Z,15.24
2019-05-28T06:23:56.948Z,15.30
2019-05-28T06:26:47.276Z,15.34
2019-05-28T06:29:30.032Z,15.43
2019-05-28T06:32:20.380Z,15.49
2019-05-28T06:35:03.535Z,15.62
2019-05-28T06:37:53.950Z,15.58
2019-05-28T06:40:37.212Z,15.62
2019-05-28T06:43:28.167Z,15.77
2019-05-28T06:46:11.324Z,15.83
2019-05-28T06:49:01.723Z,15.89
2019-05-28T06:51:52.112Z,15.90
2019-05-28T06:54:36.577Z,15.88
2019-05-28T06:57:22.680Z,15.96
2019-05-28T07:00:12.135Z,15.98
2019-05-28T07:02:55.103Z,16.00
2019-05-28T07:05:45.507Z,16.01
2019-05-28T07:08:28.821Z,16.03
2019-05-28T07:11:19.181Z,16.06
2019-05-28T07:14:01.852Z,16.11
2019-05-28T07:16:53.841Z,16.10
2019-05-28T07:19:56.522Z,16.21
2019-05-28T07:22:46.896Z,16.07
2019-05-28T07:25:29.519Z,15.95
2019-05-28T07:28:19.888Z,16.15
2019-05-28T07:31:02.538Z,16.27
2019-05-28T07:33:53.092Z,16.31
2019-05-28T07:36:36.413Z,16.30
2019-05-28T07:39:26.779Z,16.41
2019-05-28T07:42:09.412Z,16.36
2019-05-28T07:44:59.765Z,16.27
2019-05-28T07:47:42.338Z,16.43
2019-05-28T07:50:32.695Z,16.72
2019-05-28T07:53:15.866Z,17.21
2019-05-28T07:56:06.210Z,17.72
2019-05-28T07:58:49.028Z,17.73
2019-05-28T08:01:39.455Z,17.63
2019-05-28T08:04:22.283Z,17.68
2019-05-28T08:07:13.614Z,17.89
2019-05-28T08:09:56.774Z,17.97
2019-05-28T08:12:47.323Z,17.88
2019-05-28T08:15:50.127Z,17.92
2019-05-28T08:18:40.492Z,18.17
2019-05-28T08:21:23.217Z,18.53
2019-05-28T08:24:13.613Z,19.28
2019-05-28T08:26:57.065Z,19.90
2019-05-28T08:29:47.424Z,19.81
2019-05-28T08:32:50.540Z,19.28
2019-05-28T08:35:41.872Z,18.99
2019-05-28T08:38:24.576Z,18.71
2019-05-28T08:41:14.929Z,18.64
2019-05-28T08:43:58.055Z,18.63
2019-05-28T08:46:48.461Z,18.59
2019-05-28T08:49:31.482Z,18.65
2019-05-28T08:52:22.453Z,18.79
2019-05-28T08:55:06.405Z,19.01
2019-05-28T08:57:49.601Z,19.18
2019-05-28T09:04:09.254Z,19.68
2019-05-28T09:06:59.717Z,19.88
2019-05-28T09:09:43.232Z,19.92
2019-05-28T09:12:33.573Z,19.99
2019-05-28T09:15:16.880Z,20.09
2019-05-28T09:18:07.259Z,20.15
2019-05-28T09:20:50.762Z,20.27
2019-05-28T09:23:41.221Z,20.54
2019-05-28T09:26:43.885Z,20.82
2019-05-28T09:29:34.236Z,20.99
2019-05-28T09:32:17.187Z,20.83
2019-05-28T09:35:07.575Z,20.74
2019-05-28T09:37:50.148Z,20.47
2019-05-28T09:40:50.077Z,20.30
2019-05-28T09:43:45.038Z,20.27
2019-05-28T09:46:35.443Z,20.01
2019-05-28T09:49:18.686Z,20.34
2019-05-28T09:52:09.072Z,20.78
2019-05-28T09:54:52.236Z,21.09
2019-05-28T09:57:47.223Z,21.19
2019-05-28T10:00:57.565Z,20.60
2019-05-28T10:03:39.379Z,19.98
2019-05-28T10:06:36.330Z,19.80
2019-05-28T10:09:07.163Z,19.61
2019-05-28T10:11:57.533Z,19.17
2019-05-28T10:14:44.178Z,18.73
2019-05-28T10:17:25.653Z,18.58
2019-05-28T10:23:45.106Z,18.89
2019-05-28T10:26:35.509Z,19.20
2019-05-28T10:29:25.885Z,19.10
2019-05-28T10:32:08.502Z,18.89
2019-05-28T10:35:03.737Z,18.75
2019-05-28T10:38:03.868Z,18.47
2019-05-28T10:40:54.259Z,18.26
2019-05-28T10:43:44.612Z,18.07
2019-05-28T10:46:35.013Z,17.80
2019-05-28T10:49:17.807Z,17.54
2019-05-28T10:52:08.206Z,17.36
2019-05-28T10:54:51.199Z,16.60
2019-05-28T10:57:41.621Z,15.68
2019-05-28T11:00:24.717Z,14.82
2019-05-28T11:03:15.106Z,14.17
2019-05-28T11:05:58.321Z,13.94
2019-05-28T11:09:08.867Z,13.69
2019-05-28T11:12:11.950Z,13.60
2019-05-28T11:15:02.343Z,13.57
2019-05-28T11:17:45.606Z,13.56
2019-05-28T11:20:36.283Z,13.55
2019-05-28T11:23:18.937Z,13.59
2019-05-28T11:26:09.349Z,13.67
2019-05-28T11:28:52.488Z,13.55
2019-05-28T11:31:43.031Z,13.38
2019-05-28T11:34:26.116Z,13.41
2019-05-28T11:37:16.496Z,13.36
2019-05-28T11:39:59.648Z,13.22
2019-05-28T11:42:50.052Z,13.18
2019-05-28T11:45:32.831Z,13.22
2019-05-28T11:48:23.240Z,13.41
2019-05-28T11:51:05.818Z,13.71
2019-05-28T11:53:56.261Z,14.19
2019-05-28T11:56:39.599Z,14.88
2019-05-28T11:59:30.033Z,15.75
2019-05-28T12:02:20.369Z,16.41
2019-05-28T12:05:03.819Z,17.26
2019-05-28T12:07:54.195Z,17.84
2019-05-28T12:10:37.589Z,18.31
2019-05-28T12:13:27.998Z,18.73
2019-05-28T12:16:10.722Z,18.94
2019-05-28T12:19:01.135Z,19.48
2019-05-28T12:21:51.506Z,20.11
2019-05-28T12:24:34.257Z,20.58
2019-05-28T12:27:24.710Z,20.63
2019-05-28T12:30:26.737Z,20.49
2019-05-28T12:33:17.096Z,20.54
2019-05-28T12:35:59.672Z,19.99
2019-05-28T12:38:50.044Z,19.57
2019-05-28T12:41:32.669Z,19.16
2019-05-28T12:44:22.984Z,19.01
2019-05-28T12:47:06.479Z,19.06
2019-05-28T12:50:14.477Z,19.24
2019-05-28T12:53:01.863Z,19.08
2019-05-28T12:55:44.375Z,19.25
2019-05-28T12:58:42.266Z,19.44
2019-05-28T13:01:38.989Z,19.49
2019-05-28T13:04:29.360Z,19.66
2019-05-28T13:07:32.524Z,19.85
2019-05-28T13:10:22.968Z,19.93
2019-05-28T13:13:25.867Z,19.61
2019-05-28T13:16:16.324Z,19.13
2019-05-28T13:18:58.981Z,18.72
2019-05-28T13:21:49.346Z,18.14
2019-05-28T13:24:39.725Z,17.69
2019-05-28T13:27:22.694Z,17.34
2019-05-28T13:30:33.555Z,17.09
2019-05-28T13:33:16.427Z,16.97
2019-05-28T13:36:06.812Z,16.87
2019-05-28T13:38:49.490Z,16.81
2019-05-28T13:41:32.378Z,16.95
2019-05-28T13:44:22.759Z,17.51
2019-05-28T13:47:05.427Z,17.85
2019-05-28T13:49:55.855Z,18.03
2019-05-28T13:52:38.496Z,18.07
2019-05-28T13:55:28.925Z,17.90
2019-05-28T13:58:12.119Z,17.80
2019-05-28T14:01:03.111Z,17.83
2019-05-28T14:04:06.844Z,18.18
2019-05-28T14:06:57.267Z,18.46
2019-05-28T14:09:40.588Z,18.38
2019-05-28T14:12:30.930Z,18.20
2019-05-28T14:15:14.180Z,18.08
2019-05-28T14:18:04.775Z,18.06
2019-05-28T14:20:47.942Z,18.14
2019-05-28T14:23:38.284Z,18.54
2019-05-28T14:26:21.775Z,19.11
2019-05-28T14:29:12.182Z,19.73
2019-05-28T14:31:55.494Z,19.90
2019-05-28T14:34:45.875Z,20.14
2019-05-28T14:37:29.118Z,20.64
2019-05-28T14:40:24.057Z,20.74
2019-05-28T14:43:24.048Z,20.98
2019-05-28T14:46:06.896Z,21.07
2019-05-28T14:48:57.229Z,21.10
2019-05-28T14:51:39.981Z,20.97
2019-05-28T14:54:30.361Z,20.78
2019-05-28T14:57:13.714Z,20.44
2019-05-28T15:03:32.571Z,20.44
2019-05-28T15:06:22.970Z,20.11
2019-05-28T15:09:20.774Z,19.70
2019-05-28T15:12:18.426Z,19.35
2019-05-28T15:15:36.052Z,18.91
2019-05-28T15:18:33.573Z,18.54
2019-05-28T15:21:23.942Z,18.02
2019-05-28T15:24:06.856Z,17.50
2019-05-28T15:26:57.294Z,17.13
2019-05-28T15:29:40.656Z,16.70
2019-05-28T15:32:31.040Z,16.34
2019-05-28T15:35:34.486Z,16.11
2019-05-28T15:38:24.858Z,15.83
2019-05-28T15:41:08.210Z,15.63
2019-05-28T15:43:58.622Z,15.41
2019-05-28T15:46:41.269Z,15.29
2019-05-28T15:49:31.689Z,15.27
2019-05-28T15:52:15.281Z,15.26
2019-05-28T15:55:05.763Z,15.24
2019-05-28T15:57:48.691Z,15.20
2019-05-28T16:00:31.531Z,15.25
2019-05-28T16:03:21.916Z,15.20
2019-05-28T16:06:12.336Z,15.21
2019-05-28T16:08:54.963Z,15.24
2019-05-28T16:11:45.459Z,15.26
2019-05-28T16:14:28.003Z,15.19
2019-05-28T16:17:18.393Z,15.16
2019-05-28T16:20:01.242Z,15.15
2019-05-28T16:22:51.668Z,15.10
2019-05-28T16:25:34.348Z,15.05
2019-05-28T16:28:24.749Z,15.00
2019-05-28T16:31:12.487Z,14.97
2019-05-28T16:33:59.504Z,14.89
2019-05-28T16:36:42.393Z,14.85
2019-05-28T16:39:32.769Z,14.83
2019-05-28T16:42:16.222Z,14.82
2019-05-28T16:48:35.473Z,14.80
2019-05-28T16:51:18.715Z,14.77
2019-05-28T16:54:18.046Z,14.80
2019-05-28T16:56:53.483Z,14.84
2019-05-28T16:59:36.950Z,14.99
2019-05-28T17:02:27.407Z,15.05
2019-05-28T17:05:10.964Z,15.17
2019-05-28T17:08:01.563Z,15.18
2019-05-28T17:10:44.428Z,15.24
2019-05-28T17:13:34.887Z,15.28
2019-05-28T17:16:17.708Z,15.30
2019-05-28T17:19:08.140Z,15.28
2019-05-28T17:21:50.960Z,15.23
2019-05-28T17:24:41.473Z,15.15
2019-05-28T17:27:24.603Z,15.09
2019-05-28T17:30:35.425Z,15.05
2019-05-28T17:33:25.823Z,14.91
2019-05-28T17:36:16.203Z,14.81
2019-05-28T17:38:58.854Z,14.68
2019-05-28T17:41:49.401Z,14.59
2019-05-28T17:44:32.930Z,14.52
2019-05-28T17:47:23.332Z,14.44
2019-05-28T17:50:06.621Z,14.35
2019-05-28T17:52:57.004Z,14.34
2019-05-28T17:55:39.952Z,14.26
2019-05-28T17:58:31.225Z,14.21
2019-05-28T18:01:34.895Z,14.20
2019-05-28T18:04:25.267Z,14.08
2019-05-28T18:07:07.929Z,14.05
2019-05-28T18:09:58.344Z,14.02
2019-05-28T18:12:41.699Z,14.06
2019-05-28T18:15:32.070Z,13.97
2019-05-28T18:18:15.402Z,13.89
2019-05-28T18:21:05.845Z,13.85
2019-05-28T18:23:49.432Z,13.84
2019-05-28T18:26:39.831Z,13.83
2019-05-28T18:29:22.717Z,13.80
2019-05-28T18:32:13.100Z,13.91
2019-05-28T18:34:56.407Z,14.00
2019-05-28T18:37:39.726Z,14.14
2019-05-28T18:40:30.123Z,14.22
2019-05-28T18:43:12.804Z,14.33
2019-05-28T18:46:03.190Z,14.36
2019-05-28T18:48:46.504Z,14.39
2019-05-28T18:51:29.427Z,14.37
2019-05-28T18:54:19.757Z,14.36
2019-05-28T18:57:03.048Z,14.39
2019-05-28T18:59:53.361Z,14.45
2019-05-28T19:02:36.678Z,14.42
2019-05-28T19:05:27.144Z,14.48
2019-05-28T19:08:10.361Z,14.40
2019-05-28T19:11:00.771Z,14.20
2019-05-28T19:13:43.777Z,14.08
2019-05-28T19:16:53.116Z,13.92
2019-05-28T19:19:36.601Z,13.81
2019-05-28T19:22:27.094Z,13.69
2019-05-28T19:25:11.167Z,13.60
2019-05-28T19:28:01.560Z,13.55
2019-05-28T19:30:44.428Z,13.49
2019-05-28T19:33:16.105Z,13.44
2019-05-28T19:36:06.522Z,13.43
2019-05-28T19:39:17.364Z,13.41
2019-05-28T19:42:00.570Z,13.40
2019-05-28T19:44:50.978Z,13.37
2019-05-28T19:47:41.384Z,13.28
2019-05-28T19:50:25.081Z,13.24
2019-05-28T19:53:35.924Z,13.27
2019-05-28T19:56:18.573Z,13.18
2019-05-28T19:59:08.957Z,13.18
2019-05-28T20:02:11.665Z,13.12
2019-05-28T20:05:02.034Z,13.09
2019-05-28T20:08:04.813Z,13.15
2019-05-28T20:10:55.893Z,13.09
2019-05-28T20:13:38.986Z,13.07
2019-05-28T20:16:29.351Z,13.00
2019-05-28T20:19:12.595Z,13.00
2019-05-28T20:22:03.084Z,12.98
2019-05-28T20:24:47.837Z,12.98
2019-05-28T20:27:38.372Z,12.96
2019-05-28T20:30:22.125Z,12.93
2019-05-28T20:33:05.373Z,12.92
2019-05-28T20:35:55.949Z,12.90
2019-05-28T20:38:59.539Z,12.89
2019-05-28T20:41:49.976Z,12.86
2019-05-28T20:44:33.075Z,12.84
2019-05-28T20:47:23.798Z,12.84
2019-05-28T20:50:07.608Z,12.87
2019-05-28T20:52:58.224Z,12.83
2019-05-28T20:55:41.368Z,12.83
2019-05-28T20:58:40.269Z,12.86
2019-05-28T21:01:37.118Z,12.82
2019-05-28T21:04:28.065Z,12.80
2019-05-28T21:07:19.021Z,12.84
2019-05-28T21:10:21.815Z,12.69
2019-05-28T21:13:12.542Z,12.61
2019-05-28T21:15:56.788Z,12.67
2019-05-28T21:18:47.228Z,12.59
2019-05-28T21:21:30.532Z,12.53
2019-05-28T21:24:20.937Z,12.56
2019-05-28T21:27:03.564Z,12.52
2019-05-28T21:29:54.138Z,12.47
2019-05-28T21:32:36.691Z,12.45
2019-05-28T21:35:27.070Z,12.47
2019-05-28T21:38:10.248Z,12.41
2019-05-28T21:41:01.713Z,12.40
2019-05-28T21:44:05.749Z,12.39
2019-05-28T21:46:56.330Z,12.36
2019-05-28T21:50:02.025Z,12.30
2019-05-28T21:52:45.784Z,12.25
2019-05-28T21:55:36.123Z,12.20
2019-05-28T21:58:18.675Z,12.21
2019-05-28T22:01:49.083Z,12.07
2019-05-28T22:04:32.399Z,11.98
2019-05-28T22:07:22.778Z,11.90
2019-05-28T22:10:06.166Z,11.76
2019-05-28T22:16:13.813Z,11.69
2019-05-28T22:19:04.593Z,11.66
2019-05-28T22:22:09.311Z,11.64
2019-05-28T22:25:00.469Z,11.61
2019-05-28T22:28:11.953Z,11.68
2019-05-28T22:31:02.346Z,11.58
2019-05-28T22:33:45.543Z,11.61
2019-05-28T22:36:35.923Z,11.55
2019-05-28T22:39:18.789Z,11.51
2019-05-28T22:42:09.197Z,11.46
2019-05-28T22:44:52.556Z,11.43
2019-05-28T22:47:42.943Z,11.38
2019-05-28T22:50:25.773Z,11.29
2019-05-28T22:53:16.149Z,11.25
2019-05-28T22:55:59.948Z,11.13
2019-05-28T22:58:50.448Z,11.05
2019-05-28T23:01:33.088Z,11.05
2019-05-28T23:04:23.413Z,10.96
2019-05-28T23:07:07.389Z,10.89
2019-05-28T23:09:57.788Z,10.84
2019-05-28T23:12:40.402Z,10.76
2019-05-28T23:15:30.865Z,10.70
2019-05-28T23:18:14.168Z,10.65
2019-05-28T23:21:04.730Z,10.60
2019-05-28T23:24:09.326Z,10.56
2019-05-28T23:26:59.634Z,10.48
2019-05-28T23:29:43.035Z,10.40
2019-05-28T23:32:25.779Z,10.38
2019-05-28T23:35:16.410Z,10.31
2019-05-28T23:37:59.713Z,10.26
2019-05-28T23:40:49.969Z,10.21
2019-05-28T23:43:33.050Z,10.14
2019-05-28T23:46:23.421Z,10.10
2019-05-28T23:49:08.094Z,10.08
2019-05-28T23:51:50.714Z,10.02
2019-05-28T23:54:41.101Z,9.93
2019-05-28T23:57:24.550Z,9.92
